sensor_id;sensor_type;location;lat;lon;timestamp;pressure;altitude;pressure_sealevel;temperature;humidity
30636;BME280;17400;52.392;9.750;2023-05-29T00:02:14;101557.16;;;17.04;84.16
30636;BME280;17400;52.392;9.750;2023-05-29T00:04:42;101561.97;;;17.08;83.61
30636;BME280;17400;52.392;9.750;2023-05-29T00:07:09;101569.41;;;16.94;84.20
30636;BME280;17400;52.392;9.750;2023-05-29T00:09:37;101567.16;;;16.78;85.64
30636;BME280;17400;52.392;9.750;2023-05-29T00:12:05;101569.53;;;16.61;86.56
30636;BME280;17400;52.392;9.750;2023-05-29T00:14:35;101571.41;;;16.67;85.13
30636;BME280;17400;52.392;9.750;2023-05-29T00:17:03;101567.25;;;16.58;85.69
30636;BME280;17400;52.392;9.750;2023-05-29T00:19:30;101575.66;;;16.49;85.96
30636;BME280;17400;52.392;9.750;2023-05-29T00:21:58;101580.72;;;16.53;85.59
30636;BME280;17400;52.392;9.750;2023-05-29T00:24:27;101582.59;;;16.52;85.36
30636;BME280;17400;52.392;9.750;2023-05-29T00:26:55;101572.91;;;16.56;84.49
30636;BME280;17400;52.392;9.750;2023-05-29T00:29:23;101582.41;;;16.47;85.68
30636;BME280;17400;52.392;9.750;2023-05-29T00:31:52;101581.00;;;16.24;86.88
30636;BME280;17400;52.392;9.750;2023-05-29T00:34:21;101587.53;;;16.16;87.22
30636;BME280;17400;52.392;9.750;2023-05-29T00:36:50;101587.53;;;16.23;86.35
30636;BME280;17400;52.392;9.750;2023-05-29T00:39:18;101587.94;;;16.20;86.42
30636;BME280;17400;52.392;9.750;2023-05-29T00:41:46;101596.59;;;16.17;86.02
30636;BME280;17400;52.392;9.750;2023-05-29T00:44:17;101598.44;;;16.16;85.63
30636;BME280;17400;52.392;9.750;2023-05-29T00:46:45;101598.47;;;16.03;86.19
30636;BME280;17400;52.392;9.750;2023-05-29T00:49:15;101601.41;;;16.08;85.89
30636;BME280;17400;52.392;9.750;2023-05-29T00:51:43;101611.28;;;16.09;85.10
30636;BME280;17400;52.392;9.750;2023-05-29T00:54:13;101601.41;;;16.08;84.61
30636;BME280;17400;52.392;9.750;2023-05-29T00:56:42;101606.88;;;16.08;83.97
30636;BME280;17400;52.392;9.750;2023-05-29T00:59:10;101599.72;;;16.07;83.99
30636;BME280;17400;52.392;9.750;2023-05-29T01:01:38;101601.84;;;16.05;83.33
30636;BME280;17400;52.392;9.750;2023-05-29T01:04:08;101603.72;;;16.05;83.10
30636;BME280;17400;52.392;9.750;2023-05-29T01:06:40;101603.13;;;15.96;83.32
30636;BME280;17400;52.392;9.750;2023-05-29T01:09:08;101603.56;;;15.93;83.21
30636;BME280;17400;52.392;9.750;2023-05-29T01:11:41;101601.22;;;15.90;82.94
30636;BME280;17400;52.392;9.750;2023-05-29T01:14:18;101616.13;;;15.80;82.55
30636;BME280;17400;52.392;9.750;2023-05-29T01:16:58;101617.81;;;15.81;82.19
30636;BME280;17400;52.392;9.750;2023-05-29T01:19:45;101614.63;;;15.78;82.04
30636;BME280;17400;52.392;9.750;2023-05-29T01:22:41;101615.50;;;15.72;82.03
30636;BME280;17400;52.392;9.750;2023-05-29T01:25:19;101622.00;;;15.64;82.98
30636;BME280;17400;52.392;9.750;2023-05-29T01:27:50;101625.53;;;15.64;83.01
30636;BME280;17400;52.392;9.750;2023-05-29T01:30:20;101623.84;;;15.57;83.43
30636;BME280;17400;52.392;9.750;2023-05-29T01:32:48;101623.47;;;15.60;83.21
30636;BME280;17400;52.392;9.750;2023-05-29T01:35:16;101623.84;;;15.63;82.67
30636;BME280;17400;52.392;9.750;2023-05-29T01:37:44;101627.84;;;15.54;83.06
30636;BME280;17400;52.392;9.750;2023-05-29T01:40:12;101629.09;;;15.45;83.83
30636;BME280;17400;52.392;9.750;2023-05-29T01:42:40;101632.22;;;15.35;83.86
30636;BME280;17400;52.392;9.750;2023-05-29T01:45:10;101634.94;;;15.35;83.68
30636;BME280;17400;52.392;9.750;2023-05-29T01:47:39;101630.53;;;15.34;83.24
30636;BME280;17400;52.392;9.750;2023-05-29T01:50:08;101638.94;;;15.32;82.84
30636;BME280;17400;52.392;9.750;2023-05-29T01:52:37;101633.69;;;15.31;82.92
30636;BME280;17400;52.392;9.750;2023-05-29T01:55:05;101637.22;;;15.18;83.50
30636;BME280;17400;52.392;9.750;2023-05-29T01:57:33;101638.88;;;15.12;83.74
30636;BME280;17400;52.392;9.750;2023-05-29T02:00:02;101644.53;;;15.11;83.55
30636;BME280;17400;52.392;9.750;2023-05-29T02:02:37;101653.31;;;15.06;83.84
30636;BME280;17400;52.392;9.750;2023-05-29T02:05:06;101652.28;;;15.07;83.88
30636;BME280;17400;52.392;9.750;2023-05-29T02:07:34;101648.25;;;14.96;84.16
30636;BME280;17400;52.392;9.750;2023-05-29T02:10:03;101652.63;;;14.91;83.81
30636;BME280;17400;52.392;9.750;2023-05-29T02:12:31;101653.47;;;14.85;84.21
30636;BME280;17400;52.392;9.750;2023-05-29T02:14:59;101653.06;;;14.94;83.59
30636;BME280;17400;52.392;9.750;2023-05-29T02:17:35;101653.69;;;14.90;83.63
30636;BME280;17400;52.392;9.750;2023-05-29T02:20:05;101648.03;;;14.91;82.94
30636;BME280;17400;52.392;9.750;2023-05-29T02:22:33;101650.53;;;14.86;83.21
30636;BME280;17400;52.392;9.750;2023-05-29T02:25:01;101649.88;;;14.84;82.96
30636;BME280;17400;52.392;9.750;2023-05-29T02:27:29;101650.88;;;14.76;83.86
30636;BME280;17400;52.392;9.750;2023-05-29T02:29:57;101647.69;;;14.66;84.14
30636;BME280;17400;52.392;9.750;2023-05-29T02:32:25;101643.22;;;14.58;84.57
30636;BME280;17400;52.392;9.750;2023-05-29T02:34:54;101648.94;;;14.63;84.52
30636;BME280;17400;52.392;9.750;2023-05-29T02:37:23;101645.16;;;14.64;84.03
30636;BME280;17400;52.392;9.750;2023-05-29T02:39:52;101648.47;;;14.60;84.29
30636;BME280;17400;52.392;9.750;2023-05-29T02:42:20;101654.56;;;14.62;84.31
30636;BME280;17400;52.392;9.750;2023-05-29T02:44:48;101660.19;;;14.60;84.68
30636;BME280;17400;52.392;9.750;2023-05-29T02:47:15;101655.78;;;14.53;84.59
30636;BME280;17400;52.392;9.750;2023-05-29T02:49:43;101654.47;;;14.48;84.93
30636;BME280;17400;52.392;9.750;2023-05-29T02:52:11;101653.06;;;14.53;84.61
30636;BME280;17400;52.392;9.750;2023-05-29T02:54:40;101650.13;;;14.54;84.07
30636;BME280;17400;52.392;9.750;2023-05-29T02:57:08;101654.09;;;14.52;84.58
30636;BME280;17400;52.392;9.750;2023-05-29T02:59:38;101646.91;;;14.44;85.00
30636;BME280;17400;52.392;9.750;2023-05-29T03:02:05;101647.78;;;14.51;84.26
30636;BME280;17400;52.392;9.750;2023-05-29T03:04:33;101651.59;;;14.57;84.05
30636;BME280;17400;52.392;9.750;2023-05-29T03:07:01;101657.44;;;14.54;83.69
30636;BME280;17400;52.392;9.750;2023-05-29T03:09:29;101655.13;;;14.50;84.43
30636;BME280;17400;52.392;9.750;2023-05-29T03:11:58;101648.84;;;14.50;84.39
30636;BME280;17400;52.392;9.750;2023-05-29T03:14:27;101651.78;;;14.55;84.15
30636;BME280;17400;52.392;9.750;2023-05-29T03:16:55;101654.28;;;14.50;83.94
30636;BME280;17400;52.392;9.750;2023-05-29T03:19:23;101660.38;;;14.52;84.37
30636;BME280;17400;52.392;9.750;2023-05-29T03:21:51;101660.56;;;14.50;84.48
30636;BME280;17400;52.392;9.750;2023-05-29T03:24:18;101657.22;;;14.55;83.50
30636;BME280;17400;52.392;9.750;2023-05-29T03:26:46;101660.56;;;14.50;83.79
30636;BME280;17400;52.392;9.750;2023-05-29T03:29:16;101672.06;;;14.46;83.88
30636;BME280;17400;52.392;9.750;2023-05-29T03:31:43;101669.16;;;14.47;84.27
30636;BME280;17400;52.392;9.750;2023-05-29T03:34:12;101666.44;;;14.47;84.12
30636;BME280;17400;52.392;9.750;2023-05-29T03:36:40;101671.00;;;14.47;84.43
30636;BME280;17400;52.392;9.750;2023-05-29T03:39:08;101679.88;;;14.27;85.75
30636;BME280;17400;52.392;9.750;2023-05-29T03:41:35;101675.88;;;14.23;85.49
30636;BME280;17400;52.392;9.750;2023-05-29T03:44:03;101678.41;;;14.25;85.71
30636;BME280;17400;52.392;9.750;2023-05-29T03:46:33;101675.88;;;14.23;85.57
30636;BME280;17400;52.392;9.750;2023-05-29T03:49:00;101675.03;;;14.23;85.86
30636;BME280;17400;52.392;9.750;2023-05-29T03:51:28;101682.13;;;14.17;86.25
30636;BME280;17400;52.392;9.750;2023-05-29T03:53:57;101681.16;;;14.03;87.61
30636;BME280;17400;52.392;9.750;2023-05-29T03:56:25;101680.84;;;14.13;87.05
30636;BME280;17400;52.392;9.750;2023-05-29T03:58:53;101679.41;;;14.17;86.99
30636;BME280;17400;52.392;9.750;2023-05-29T04:01:21;101680.19;;;14.11;87.09
30636;BME280;17400;52.392;9.750;2023-05-29T04:03:50;101673.75;;;14.19;86.22
30636;BME280;17400;52.392;9.750;2023-05-29T04:06:18;101675.44;;;14.20;86.57
30636;BME280;17400;52.392;9.750;2023-05-29T04:08:46;101678.84;;;14.28;85.68
30636;BME280;17400;52.392;9.750;2023-05-29T04:11:14;101686.34;;;14.20;85.97
30636;BME280;17400;52.392;9.750;2023-05-29T04:13:42;101680.28;;;13.96;87.49
30636;BME280;17400;52.392;9.750;2023-05-29T04:16:09;101692.47;;;14.00;87.32
30636;BME280;17400;52.392;9.750;2023-05-29T04:18:37;101691.28;;;14.09;86.89
30636;BME280;17400;52.392;9.750;2023-05-29T04:21:06;101690.09;;;14.19;86.53
30636;BME280;17400;52.392;9.750;2023-05-29T04:23:34;101689.69;;;14.22;85.64
30636;BME280;17400;52.392;9.750;2023-05-29T04:26:02;101700.06;;;14.11;86.27
30636;BME280;17400;52.392;9.750;2023-05-29T04:28:32;101703.91;;;14.17;86.06
30636;BME280;17400;52.392;9.750;2023-05-29T04:30:59;101701.78;;;14.12;86.22
30636;BME280;17400;52.392;9.750;2023-05-29T04:33:27;101709.94;;;14.12;86.45
30636;BME280;17400;52.392;9.750;2023-05-29T04:35:56;101710.53;;;14.08;86.36
30636;BME280;17400;52.392;9.750;2023-05-29T04:38:25;101705.03;;;14.01;87.04
30636;BME280;17400;52.392;9.750;2023-05-29T04:40:53;101707.75;;;14.01;86.68
30636;BME280;17400;52.392;9.750;2023-05-29T04:43:25;101706.22;;;13.92;87.90
30636;BME280;17400;52.392;9.750;2023-05-29T04:45:53;101713.97;;;13.95;87.08
30636;BME280;17400;52.392;9.750;2023-05-29T04:48:21;101715.28;;;13.99;87.11
30636;BME280;17400;52.392;9.750;2023-05-29T04:50:51;101707.50;;;13.96;87.41
30636;BME280;17400;52.392;9.750;2023-05-29T04:53:19;101710.78;;;13.91;87.54
30636;BME280;17400;52.392;9.750;2023-05-29T04:55:48;101706.84;;;13.94;87.54
30636;BME280;17400;52.392;9.750;2023-05-29T04:58:16;101701.00;;;13.97;87.07
30636;BME280;17400;52.392;9.750;2023-05-29T05:00:44;101699.34;;;13.96;87.32
30636;BME280;17400;52.392;9.750;2023-05-29T05:03:12;101702.84;;;13.90;87.62
30636;BME280;17400;52.392;9.750;2023-05-29T05:05:43;101711.97;;;13.82;88.74
30636;BME280;17400;52.392;9.750;2023-05-29T05:08:11;101705.28;;;13.85;89.04
30636;BME280;17400;52.392;9.750;2023-05-29T05:10:39;101711.88;;;13.97;87.70
30636;BME280;17400;52.392;9.750;2023-05-29T05:13:08;101710.91;;;14.05;87.20
30636;BME280;17400;52.392;9.750;2023-05-29T05:15:37;101709.63;;;14.00;87.09
30636;BME280;17400;52.392;9.750;2023-05-29T05:18:05;101705.66;;;14.03;86.96
30636;BME280;17400;52.392;9.750;2023-05-29T05:20:33;101705.66;;;14.03;86.88
30636;BME280;17400;52.392;9.750;2023-05-29T05:23:01;101709.16;;;13.97;86.83
30636;BME280;17400;52.392;9.750;2023-05-29T05:25:29;101711.47;;;13.93;87.03
30636;BME280;17400;52.392;9.750;2023-05-29T05:27:57;101715.84;;;13.94;87.35
30636;BME280;17400;52.392;9.750;2023-05-29T05:30:26;101715.47;;;13.97;87.21
30636;BME280;17400;52.392;9.750;2023-05-29T05:32:53;101714.59;;;13.97;87.08
30636;BME280;17400;52.392;9.750;2023-05-29T05:35:22;101718.50;;;13.88;87.85
30636;BME280;17400;52.392;9.750;2023-05-29T05:37:50;101724.13;;;13.86;87.79
30636;BME280;17400;52.392;9.750;2023-05-29T05:40:18;101732.09;;;13.88;88.15
30636;BME280;17400;52.392;9.750;2023-05-29T05:42:46;101728.75;;;13.86;88.41
30636;BME280;17400;52.392;9.750;2023-05-29T05:45:13;101733.75;;;13.82;89.58
30636;BME280;17400;52.392;9.750;2023-05-29T05:47:43;101734.41;;;13.84;89.16
30636;BME280;17400;52.392;9.750;2023-05-29T05:50:10;101744.16;;;13.78;89.13
30636;BME280;17400;52.392;9.750;2023-05-29T05:52:38;101735.28;;;13.70;89.56
30636;BME280;17400;52.392;9.750;2023-05-29T05:55:06;101732.19;;;13.73;89.49
30636;BME280;17400;52.392;9.750;2023-05-29T05:57:35;101729.66;;;13.71;90.65
30636;BME280;17400;52.392;9.750;2023-05-29T06:00:03;101728.34;;;13.89;89.35
30636;BME280;17400;52.392;9.750;2023-05-29T06:02:33;101724.09;;;14.01;88.45
30636;BME280;17400;52.392;9.750;2023-05-29T06:05:03;101728.22;;;13.97;88.39
30636;BME280;17400;52.392;9.750;2023-05-29T06:07:33;101728.94;;;14.06;88.09
30636;BME280;17400;52.392;9.750;2023-05-29T06:10:02;101735.03;;;14.08;87.49
30636;BME280;17400;52.392;9.750;2023-05-29T06:12:30;101740.88;;;14.05;87.68
30636;BME280;17400;52.392;9.750;2023-05-29T06:14:58;101745.63;;;13.96;88.47
30636;BME280;17400;52.392;9.750;2023-05-29T06:17:26;101746.78;;;13.87;89.45
30636;BME280;17400;52.392;9.750;2023-05-29T06:19:54;101747.22;;;13.90;89.40
30636;BME280;17400;52.392;9.750;2023-05-29T06:22:23;101755.44;;;13.97;88.41
30636;BME280;17400;52.392;9.750;2023-05-29T06:24:51;101756.63;;;14.09;88.33
30636;BME280;17400;52.392;9.750;2023-05-29T06:27:19;101748.38;;;14.24;87.97
30636;BME280;17400;52.392;9.750;2023-05-29T06:29:49;101744.81;;;14.24;86.58
30636;BME280;17400;52.392;9.750;2023-05-29T06:32:17;101753.25;;;14.29;86.15
30636;BME280;17400;52.392;9.750;2023-05-29T06:34:45;101754.28;;;14.28;85.88
30636;BME280;17400;52.392;9.750;2023-05-29T06:37:13;101756.44;;;14.39;85.07
30636;BME280;17400;52.392;9.750;2023-05-29T06:39:45;101753.56;;;14.41;84.82
30636;BME280;17400;52.392;9.750;2023-05-29T06:42:13;101748.94;;;14.41;85.56
30636;BME280;17400;52.392;9.750;2023-05-29T06:44:41;101756.13;;;14.49;84.74
30636;BME280;17400;52.392;9.750;2023-05-29T06:47:09;101754.03;;;14.51;84.23
30636;BME280;17400;52.392;9.750;2023-05-29T06:49:37;101760.72;;;14.48;83.72
30636;BME280;17400;52.392;9.750;2023-05-29T06:52:05;101767.91;;;14.56;83.47
30636;BME280;17400;52.392;9.750;2023-05-29T06:54:33;101764.53;;;14.76;82.61
30636;BME280;17400;52.392;9.750;2023-05-29T06:57:02;101760.91;;;15.04;81.32
30636;BME280;17400;52.392;9.750;2023-05-29T06:59:37;101769.75;;;15.06;82.09
30636;BME280;17400;52.392;9.750;2023-05-29T07:02:05;101777.84;;;14.92;81.69
30636;BME280;17400;52.392;9.750;2023-05-29T07:04:32;101770.88;;;14.83;81.64
30636;BME280;17400;52.392;9.750;2023-05-29T07:07:00;101774.84;;;14.80;82.15
30636;BME280;17400;52.392;9.750;2023-05-29T07:09:28;101777.41;;;14.89;81.81
30636;BME280;17400;52.392;9.750;2023-05-29T07:11:56;101775.38;;;15.04;81.43
30636;BME280;17400;52.392;9.750;2023-05-29T07:14:25;101782.53;;;15.05;81.05
30636;BME280;17400;52.392;9.750;2023-05-29T07:16:53;101778.34;;;15.09;81.05
30636;BME280;17400;52.392;9.750;2023-05-29T07:19:21;101775.88;;;15.14;80.42
30636;BME280;17400;52.392;9.750;2023-05-29T07:21:49;101782.81;;;15.17;80.78
30636;BME280;17400;52.392;9.750;2023-05-29T07:24:16;101782.59;;;15.19;80.31
30636;BME280;17400;52.392;9.750;2023-05-29T07:26:44;101780.09;;;15.24;80.75
30636;BME280;17400;52.392;9.750;2023-05-29T07:29:12;101784.47;;;15.11;79.78
30636;BME280;17400;52.392;9.750;2023-05-29T07:31:42;101789.22;;;15.03;80.86
30636;BME280;17400;52.392;9.750;2023-05-29T07:34:10;101780.19;;;14.95;81.27
30636;BME280;17400;52.392;9.750;2023-05-29T07:36:56;101777.84;;;14.92;82.10
30636;BME280;17400;52.392;9.750;2023-05-29T07:39:24;101781.03;;;15.03;82.09
30636;BME280;17400;52.392;9.750;2023-05-29T07:41:52;101784.94;;;15.22;80.22
30636;BME280;17400;52.392;9.750;2023-05-29T07:44:19;101780.41;;;15.42;78.23
30636;BME280;17400;52.392;9.750;2023-05-29T07:46:49;101788.84;;;15.54;77.28
30636;BME280;17400;52.392;9.750;2023-05-29T07:49:17;101794.09;;;15.56;77.15
30636;BME280;17400;52.392;9.750;2023-05-29T07:51:45;101796.47;;;15.65;76.58
30636;BME280;17400;52.392;9.750;2023-05-29T07:54:13;101793.47;;;15.54;74.91
30636;BME280;17400;52.392;9.750;2023-05-29T07:56:44;101803.34;;;15.55;74.81
30636;BME280;17400;52.392;9.750;2023-05-29T07:59:12;101801.66;;;15.54;74.82
30636;BME280;17400;52.392;9.750;2023-05-29T08:01:40;101795.06;;;15.35;76.08
30636;BME280;17400;52.392;9.750;2023-05-29T08:04:09;101791.09;;;15.37;77.04
30636;BME280;17400;52.392;9.750;2023-05-29T08:06:37;101800.19;;;15.51;75.77
30636;BME280;17400;52.392;9.750;2023-05-29T08:09:09;101795.78;;;15.57;74.68
30636;BME280;17400;52.392;9.750;2023-05-29T08:11:36;101792.47;;;15.61;73.61
30636;BME280;17400;52.392;9.750;2023-05-29T08:14:04;101793.53;;;15.67;73.16
30636;BME280;17400;52.392;9.750;2023-05-29T08:16:32;101789.16;;;15.79;73.28
30636;BME280;17400;52.392;9.750;2023-05-29T08:19:00;101796.97;;;15.82;73.10
30636;BME280;17400;52.392;9.750;2023-05-29T08:21:29;101789.41;;;15.85;72.76
30636;BME280;17400;52.392;9.750;2023-05-29T08:23:58;101791.25;;;15.77;72.90
30636;BME280;17400;52.392;9.750;2023-05-29T08:26:26;101786.69;;;15.85;72.30
30636;BME280;17400;52.392;9.750;2023-05-29T08:28:54;101782.84;;;15.79;69.22
30636;BME280;17400;52.392;9.750;2023-05-29T08:31:22;101786.28;;;15.88;69.16
30636;BME280;17400;52.392;9.750;2023-05-29T08:33:51;101791.34;;;15.97;69.51
30636;BME280;17400;52.392;9.750;2023-05-29T08:36:19;101785.69;;;16.12;69.54
30636;BME280;17400;52.392;9.750;2023-05-29T08:38:49;101784.03;;;16.11;69.13
30636;BME280;17400;52.392;9.750;2023-05-29T08:41:20;101792.00;;;16.06;67.71
30636;BME280;17400;52.392;9.750;2023-05-29T08:43:49;101784.84;;;16.05;68.18
30636;BME280;17400;52.392;9.750;2023-05-29T08:46:18;101792.59;;;16.08;66.06
30636;BME280;17400;52.392;9.750;2023-05-29T08:48:49;101790.72;;;16.02;64.24
30636;BME280;17400;52.392;9.750;2023-05-29T08:51:20;101784.41;;;16.08;62.47
30636;BME280;17400;52.392;9.750;2023-05-29T08:53:50;101790.91;;;16.07;61.61
30636;BME280;17400;52.392;9.750;2023-05-29T08:56:19;101800.41;;;16.18;61.87
30636;BME280;17400;52.392;9.750;2023-05-29T08:59:01;101791.59;;;16.23;63.11
30636;BME280;17400;52.392;9.750;2023-05-29T09:01:49;101795.19;;;16.30;65.06
30636;BME280;17400;52.392;9.750;2023-05-29T09:04:17;101799.38;;;16.32;65.04
30636;BME280;17400;52.392;9.750;2023-05-29T09:06:46;101798.53;;;16.39;64.77
30636;BME280;17400;52.392;9.750;2023-05-29T09:09:16;101796.84;;;16.44;63.86
30636;BME280;17400;52.392;9.750;2023-05-29T09:11:44;101791.81;;;16.41;64.67
30636;BME280;17400;52.392;9.750;2023-05-29T09:14:33;101792.66;;;16.42;61.78
30636;BME280;17400;52.392;9.750;2023-05-29T09:17:03;101795.38;;;16.35;62.39
30636;BME280;17400;52.392;9.750;2023-05-29T09:19:33;101788.03;;;16.36;61.73
30636;BME280;17400;52.392;9.750;2023-05-29T09:22:08;101783.81;;;16.33;61.17
30636;BME280;17400;52.392;9.750;2023-05-29T09:24:38;101790.13;;;16.40;62.16
30636;BME280;17400;52.392;9.750;2023-05-29T09:27:06;101794.31;;;16.49;62.10
30636;BME280;17400;52.392;9.750;2023-05-29T09:29:38;101793.91;;;16.59;61.52
30636;BME280;17400;52.392;9.750;2023-05-29T09:32:09;101794.53;;;16.55;61.04
30636;BME280;17400;52.392;9.750;2023-05-29T09:34:38;101799.59;;;16.58;61.03
30636;BME280;17400;52.392;9.750;2023-05-29T09:37:07;101787.19;;;16.62;60.22
30636;BME280;17400;52.392;9.750;2023-05-29T09:39:48;101786.13;;;16.63;59.67
30636;BME280;17400;52.392;9.750;2023-05-29T09:42:16;101797.69;;;16.65;59.40
30636;BME280;17400;52.392;9.750;2023-05-29T09:44:45;101795.78;;;16.65;58.12
30636;BME280;17400;52.392;9.750;2023-05-29T09:47:17;101785.50;;;16.68;58.42
30636;BME280;17400;52.392;9.750;2023-05-29T09:49:45;101788.00;;;16.69;57.93
30636;BME280;17400;52.392;9.750;2023-05-29T09:52:14;101787.38;;;16.74;57.76
30636;BME280;17400;52.392;9.750;2023-05-29T09:54:43;101786.34;;;16.81;57.48
30636;BME280;17400;52.392;9.750;2023-05-29T09:57:16;101779.16;;;16.87;58.09
30636;BME280;17400;52.392;9.750;2023-05-29T09:59:45;101774.53;;;16.88;58.17
30636;BME280;17400;52.392;9.750;2023-05-29T10:02:21;101772.84;;;16.87;57.86
30636;BME280;17400;52.392;9.750;2023-05-29T10:04:52;101776.00;;;16.97;56.88
30636;BME280;17400;52.392;9.750;2023-05-29T10:07:24;101775.78;;;17.05;56.99
30636;BME280;17400;52.392;9.750;2023-05-29T10:09:58;101773.47;;;17.02;56.49
30636;BME280;17400;52.392;9.750;2023-05-29T10:12:28;101774.31;;;16.96;56.44
30636;BME280;17400;52.392;9.750;2023-05-29T10:15:06;101777.47;;;17.06;56.96
30636;BME280;17400;52.392;9.750;2023-05-29T10:17:46;101777.91;;;17.03;55.81
30636;BME280;17400;52.392;9.750;2023-05-29T10:20:17;101788.41;;;17.06;56.01
30636;BME280;17400;52.392;9.750;2023-05-29T10:22:49;101788.41;;;17.06;54.95
30636;BME280;17400;52.392;9.750;2023-05-29T10:25:19;101783.34;;;17.10;54.95
30636;BME280;17400;52.392;9.750;2023-05-29T10:27:52;101776.81;;;17.11;55.89
30636;BME280;17400;52.392;9.750;2023-05-29T10:30:39;101767.75;;;17.17;56.09
30636;BME280;17400;52.392;9.750;2023-05-29T10:33:31;101755.13;;;17.16;56.13
30636;BME280;17400;52.392;9.750;2023-05-29T10:36:07;101749.84;;;17.14;55.74
30636;BME280;17400;52.392;9.750;2023-05-29T10:38:40;101762.50;;;17.15;56.11
30636;BME280;17400;52.392;9.750;2023-05-29T10:41:29;101754.91;;;17.24;56.20
30636;BME280;17400;52.392;9.750;2023-05-29T10:44:00;101748.75;;;17.29;55.72
30636;BME280;17400;52.392;9.750;2023-05-29T10:47:06;101748.34;;;17.32;55.43
30636;BME280;17400;52.392;9.750;2023-05-29T10:49:35;101752.94;;;17.31;55.51
30636;BME280;17400;52.392;9.750;2023-05-29T10:52:04;101743.91;;;17.31;55.46
30636;BME280;17400;52.392;9.750;2023-05-29T10:54:41;101754.63;;;17.39;56.13
30636;BME280;17400;52.392;9.750;2023-05-29T10:57:17;101752.28;;;17.43;54.96
30636;BME280;17400;52.392;9.750;2023-05-29T10:59:46;101759.84;;;17.47;55.36
30636;BME280;17400;52.392;9.750;2023-05-29T11:02:17;101747.84;;;17.48;54.89
30636;BME280;17400;52.392;9.750;2023-05-29T11:05:05;101752.25;;;17.49;55.17
30636;BME280;17400;52.392;9.750;2023-05-29T11:07:34;101746.78;;;17.49;54.23
30636;BME280;17400;52.392;9.750;2023-05-29T11:10:12;101738.97;;;17.53;54.77
30636;BME280;17400;52.392;9.750;2023-05-29T11:12:56;101745.94;;;17.49;55.31
30636;BME280;17400;52.392;9.750;2023-05-29T11:15:25;101737.69;;;17.56;55.79
30636;BME280;17400;52.392;9.750;2023-05-29T11:17:53;101734.94;;;17.62;55.66
30636;BME280;17400;52.392;9.750;2023-05-29T11:20:36;101743.69;;;17.71;55.33
30636;BME280;17400;52.392;9.750;2023-05-29T11:23:05;101742.19;;;17.75;54.57
30636;BME280;17400;52.392;9.750;2023-05-29T11:25:36;101745.97;;;17.81;54.61
30636;BME280;17400;52.392;9.750;2023-05-29T11:28:05;101749.28;;;17.90;54.38
30636;BME280;17400;52.392;9.750;2023-05-29T11:30:46;101741.69;;;17.98;54.16
30636;BME280;17400;52.392;9.750;2023-05-29T11:33:22;101737.88;;;18.00;52.31
30636;BME280;17400;52.392;9.750;2023-05-29T11:35:55;101733.41;;;18.05;52.45
30636;BME280;17400;52.392;9.750;2023-05-29T11:38:24;101731.00;;;18.15;51.26
30636;BME280;17400;52.392;9.750;2023-05-29T11:40:53;101736.66;;;18.21;50.65
30636;BME280;17400;52.392;9.750;2023-05-29T11:43:21;101736.47;;;18.66;49.97
30636;BME280;17400;52.392;9.750;2023-05-29T11:45:51;101730.59;;;18.81;49.77
30636;BME280;17400;52.392;9.750;2023-05-29T11:48:19;101736.78;;;18.76;49.40
30636;BME280;17400;52.392;9.750;2023-05-29T11:50:48;101734.72;;;18.72;50.30
30636;BME280;17400;52.392;9.750;2023-05-29T11:53:16;101730.91;;;18.73;49.69
30636;BME280;17400;52.392;9.750;2023-05-29T11:55:44;101720.84;;;18.85;50.43
30636;BME280;17400;52.392;9.750;2023-05-29T11:58:11;101729.72;;;18.87;50.04
30636;BME280;17400;52.392;9.750;2023-05-29T12:00:39;101709.78;;;18.98;49.79
30636;BME280;17400;52.392;9.750;2023-05-29T12:03:11;101717.53;;;19.20;49.32
30636;BME280;17400;52.392;9.750;2023-05-29T12:05:46;101707.81;;;19.36;48.60
30636;BME280;17400;52.392;9.750;2023-05-29T12:08:15;101716.78;;;19.62;48.30
30636;BME280;17400;52.392;9.750;2023-05-29T12:10:46;101709.50;;;19.68;48.06
30636;BME280;17400;52.392;9.750;2023-05-29T12:13:15;101712.28;;;19.79;47.76
30636;BME280;17400;52.392;9.750;2023-05-29T12:15:45;101709.34;;;19.93;47.22
30636;BME280;17400;52.392;9.750;2023-05-29T12:18:15;101715.00;;;19.98;46.34
30636;BME280;17400;52.392;9.750;2023-05-29T12:20:43;101709.28;;;20.11;46.11
30636;BME280;17400;52.392;9.750;2023-05-29T12:23:12;101702.34;;;20.21;45.41
30636;BME280;17400;52.392;9.750;2023-05-29T12:25:40;101702.47;;;20.38;45.43
30636;BME280;17400;52.392;9.750;2023-05-29T12:28:15;101701.41;;;20.39;45.20
30636;BME280;17400;52.392;9.750;2023-05-29T12:30:46;101709.53;;;20.45;45.33
30636;BME280;17400;52.392;9.750;2023-05-29T12:33:28;101710.50;;;20.63;44.21
30636;BME280;17400;52.392;9.750;2023-05-29T12:36:04;101698.75;;;20.79;43.42
30636;BME280;17400;52.392;9.750;2023-05-29T12:38:33;101697.44;;;20.82;43.47
30636;BME280;17400;52.392;9.750;2023-05-29T12:41:02;101704.72;;;21.00;42.96
30636;BME280;17400;52.392;9.750;2023-05-29T12:43:30;101709.75;;;20.91;41.96
30636;BME280;17400;52.392;9.750;2023-05-29T12:45:58;101710.19;;;21.12;41.30
30636;BME280;17400;52.392;9.750;2023-05-29T12:48:28;101703.53;;;21.37;41.17
30636;BME280;17400;52.392;9.750;2023-05-29T12:50:57;101706.59;;;21.40;41.13
30636;BME280;17400;52.392;9.750;2023-05-29T12:53:28;101706.97;;;21.44;40.50
30636;BME280;17400;52.392;9.750;2023-05-29T12:55:57;101700.94;;;21.59;40.46
30636;BME280;17400;52.392;9.750;2023-05-29T12:58:24;101700.59;;;21.55;39.68
30636;BME280;17400;52.392;9.750;2023-05-29T13:00:53;101699.53;;;21.44;39.96
30636;BME280;17400;52.392;9.750;2023-05-29T13:03:22;101701.28;;;21.62;39.23
30636;BME280;17400;52.392;9.750;2023-05-29T13:05:52;101692.69;;;21.76;38.77